createdAt,value
2018-09-16T00:01:07.609Z,11.90
2018-09-16T00:03:35.337Z,11.90
2018-09-16T00:06:03.097Z,11.90
2018-09-16T00:08:30.870Z,11.90
2018-09-16T00:10:58.665Z,11.90
2018-09-16T00:13:26.412Z,11.80
2018-09-16T00:15:54.358Z,11.70
2018-09-16T00:18:22.077Z,11.60
2018-09-16T00:20:49.829Z,11.60
2018-09-16T00:23:17.576Z,11.60
2018-09-16T00:25:45.286Z,11.50
2018-09-16T00:28:13.500Z,11.50
2018-09-16T00:30:41.225Z,11.40
2018-09-16T00:33:08.969Z,11.40
2018-09-16T00:35:36.777Z,11.40
2018-09-16T00:38:04.552Z,11.60
2018-09-16T00:40:32.285Z,11.50
2018-09-16T00:43:00.049Z,11.50
2018-09-16T00:45:27.801Z,11.50
2018-09-16T00:47:55.566Z,11.40
2018-09-16T00:50:23.326Z,11.50
2018-09-16T00:52:51.041Z,11.40
2018-09-16T00:55:18.780Z,11.40
2018-09-16T00:57:46.485Z,11.30
2018-09-16T01:00:14.233Z,11.30
2018-09-16T01:02:41.975Z,11.20
2018-09-16T01:05:09.779Z,11.20
2018-09-16T01:07:37.509Z,11.10
2018-09-16T01:10:05.337Z,11.10
2018-09-16T01:12:33.138Z,11.10
2018-09-16T01:15:01.170Z,11.00
2018-09-16T01:17:28.920Z,11.00
2018-09-16T01:19:56.793Z,11.00
2018-09-16T01:22:24.555Z,11.00
2018-09-16T01:24:52.277Z,10.90
2018-09-16T01:27:20.012Z,11.00
2018-09-16T01:29:47.722Z,11.00
2018-09-16T01:32:15.462Z,11.00
2018-09-16T01:34:43.266Z,11.00
2018-09-16T01:37:16.494Z,10.90
2018-09-16T01:39:44.268Z,10.80
2018-09-16T01:42:12.070Z,10.80
2018-09-16T01:44:39.817Z,10.80
2018-09-16T01:47:07.566Z,10.70
2018-09-16T01:49:35.306Z,10.70
2018-09-16T01:52:03.101Z,10.60
2018-09-16T01:54:30.864Z,10.70
2018-09-16T01:56:58.628Z,10.50
2018-09-16T01:59:26.403Z,10.40
2018-09-16T02:01:54.746Z,10.40
2018-09-16T02:04:22.490Z,10.40
2018-09-16T02:06:50.375Z,10.40
2018-09-16T02:09:18.185Z,10.40
2018-09-16T02:11:45.946Z,10.30
2018-09-16T02:14:13.693Z,10.30
2018-09-16T02:16:41.445Z,10.20
2018-09-16T02:19:09.173Z,10.30
2018-09-16T02:21:36.910Z,10.20
2018-09-16T02:24:04.653Z,10.20
2018-09-16T02:26:32.388Z,10.20
2018-09-16T02:29:00.097Z,10.20
2018-09-16T02:31:27.865Z,10.20
2018-09-16T02:33:55.601Z,10.10
2018-09-16T02:36:23.396Z,10.10
2018-09-16T02:38:51.246Z,10.10
2018-09-16T02:41:18.961Z,10.10
2018-09-16T02:43:46.841Z,10.00
2018-09-16T02:46:14.589Z,10.00
2018-09-16T02:48:42.373Z,10.00
2018-09-16T02:51:10.085Z,10.00
2018-09-16T02:53:37.813Z,10.00
2018-09-16T02:56:05.700Z,10.00
2018-09-16T02:58:33.494Z,9.90
2018-09-16T03:01:01.793Z,9.80
2018-09-16T03:03:29.570Z,9.90
2018-09-16T03:05:57.297Z,9.90
2018-09-16T03:08:26.477Z,9.90
2018-09-16T03:10:54.197Z,9.90
2018-09-16T03:13:21.961Z,9.90
2018-09-16T03:15:49.796Z,9.90
2018-09-16T03:18:17.541Z,9.80
2018-09-16T03:20:45.330Z,9.70
2018-09-16T03:23:13.089Z,9.80
2018-09-16T03:25:40.826Z,9.80
2018-09-16T03:28:08.569Z,9.90
2018-09-16T03:30:36.315Z,9.80
2018-09-16T03:33:04.058Z,9.80
2018-09-16T03:35:32.297Z,9.80
2018-09-16T03:38:00.033Z,9.80
2018-09-16T03:40:27.773Z,9.70
2018-09-16T03:42:55.492Z,9.70
2018-09-16T03:45:23.272Z,9.70
2018-09-16T03:47:50.947Z,9.60
2018-09-16T03:50:18.689Z,9.70
2018-09-16T03:52:46.424Z,9.70
2018-09-16T03:55:14.158Z,9.70
2018-09-16T03:57:41.905Z,9.70
2018-09-16T04:00:09.673Z,9.60
2018-09-16T04:02:38.054Z,9.70
2018-09-16T04:05:05.797Z,9.60
2018-09-16T04:07:33.585Z,9.60
2018-09-16T04:10:01.326Z,9.50
2018-09-16T04:12:29.075Z,9.60
2018-09-16T04:14:56.800Z,9.60
2018-09-16T04:17:24.577Z,9.60
2018-09-16T04:19:52.301Z,9.50
2018-09-16T04:22:20.077Z,9.50
2018-09-16T04:24:47.821Z,9.50
2018-09-16T04:27:15.565Z,9.50
2018-09-16T04:29:43.302Z,9.50
2018-09-16T04:32:11.074Z,9.40
2018-09-16T04:34:38.806Z,9.40
2018-09-16T04:37:06.578Z,9.30
2018-09-16T04:39:34.315Z,9.30
2018-09-16T04:42:02.061Z,9.40
2018-09-16T04:44:29.858Z,9.40
2018-09-16T04:46:57.571Z,9.40
2018-09-16T04:49:25.301Z,9.40
2018-09-16T04:51:53.053Z,9.40
2018-09-16T04:54:20.782Z,9.40
2018-09-16T04:56:48.490Z,9.40
2018-09-16T04:59:16.225Z,9.40
2018-09-16T05:01:43.938Z,9.40
2018-09-16T05:04:11.722Z,9.40
2018-09-16T05:06:39.456Z,9.40
2018-09-16T05:09:07.993Z,9.40
2018-09-16T05:11:35.834Z,9.40
2018-09-16T05:14:03.626Z,9.50
2018-09-16T05:16:31.461Z,9.50
2018-09-16T05:18:59.206Z,9.50
2018-09-16T05:21:26.951Z,9.40
2018-09-16T05:23:54.681Z,9.50
2018-09-16T05:26:22.413Z,9.50
2018-09-16T05:28:50.127Z,9.50
2018-09-16T05:31:17.889Z,9.50
2018-09-16T05:33:45.602Z,9.50
2018-09-16T05:36:14.585Z,9.50
2018-09-16T05:38:43.102Z,9.50
2018-09-16T05:41:12.433Z,9.60
2018-09-16T05:43:41.439Z,9.60
2018-09-16T05:46:09.873Z,9.70
2018-09-16T05:48:38.961Z,9.70
2018-09-16T05:51:07.854Z,9.70
2018-09-16T05:53:36.679Z,9.60
2018-09-16T05:56:04.757Z,9.70
2018-09-16T05:58:33.280Z,9.80
2018-09-16T06:01:02.374Z,11.30
2018-09-16T06:03:32.389Z,13.40
2018-09-16T06:06:00.856Z,14.50
2018-09-16T06:08:30.714Z,14.90
2018-09-16T06:10:59.108Z,15.00
2018-09-16T06:13:28.549Z,15.60
2018-09-16T06:15:57.448Z,15.90
2018-09-16T06:18:26.456Z,16.30
2018-09-16T06:20:55.590Z,16.40
2018-09-16T06:23:24.735Z,16.50
2018-09-16T06:25:52.521Z,16.90
2018-09-16T06:28:20.238Z,17.50
2018-09-16T06:30:49.088Z,18.20
2018-09-16T06:33:19.018Z,18.60
2018-09-16T06:35:46.961Z,18.80
2018-09-16T06:38:16.073Z,19.10
2018-09-16T06:40:45.562Z,19.20
2018-09-16T06:43:14.602Z,19.50
2018-09-16T06:45:43.903Z,19.90
2018-09-16T06:48:13.478Z,20.60
2018-09-16T06:50:43.031Z,20.60
2018-09-16T06:53:12.173Z,21.00
2018-09-16T06:55:41.801Z,21.40
2018-09-16T06:58:10.755Z,22.10
2018-09-16T07:00:39.998Z,22.50
2018-09-16T07:03:09.034Z,22.70
2018-09-16T07:05:38.200Z,21.80
2018-09-16T07:08:06.678Z,22.30
2018-09-16T07:10:35.489Z,23.00
2018-09-16T07:13:04.457Z,22.40
2018-09-16T07:15:32.337Z,21.00
2018-09-16T07:18:00.765Z,21.60
2018-09-16T07:20:29.217Z,20.70
2018-09-16T07:22:58.089Z,21.50
2018-09-16T07:25:27.147Z,21.50
2018-09-16T07:27:56.126Z,21.70
2018-09-16T07:30:24.755Z,21.30
2018-09-16T07:32:55.062Z,20.40
2018-09-16T07:35:22.813Z,20.70
2018-09-16T07:37:50.566Z,21.70
2018-09-16T07:40:18.294Z,23.00
2018-09-16T07:42:47.035Z,22.60
2018-09-16T07:45:15.296Z,21.90
2018-09-16T07:47:44.767Z,20.80
2018-09-16T07:50:13.898Z,22.40
2018-09-16T07:52:44.514Z,22.70
2018-09-16T07:55:12.389Z,23.40
2018-09-16T07:57:41.524Z,23.40
2018-09-16T08:00:10.349Z,22.70
2018-09-16T08:02:39.089Z,24.60
2018-09-16T08:05:07.980Z,23.30
2018-09-16T08:07:35.757Z,23.80
2018-09-16T08:10:04.434Z,25.60
2018-09-16T08:12:32.906Z,24.50
2018-09-16T08:15:01.414Z,25.40
2018-09-16T08:17:29.162Z,23.30
2018-09-16T08:19:57.534Z,23.60
2018-09-16T08:22:26.086Z,25.70
2018-09-16T08:24:55.110Z,23.60
2018-09-16T08:27:24.352Z,23.70
2018-09-16T08:29:52.126Z,24.20
2018-09-16T08:32:20.029Z,24.50
2018-09-16T08:34:48.508Z,25.20
2018-09-16T08:37:16.902Z,25.20
2018-09-16T08:39:45.318Z,25.40
2018-09-16T08:42:14.673Z,25.50
2018-09-16T08:44:42.449Z,24.70
2018-09-16T08:47:11.527Z,23.60
2018-09-16T08:49:40.835Z,25.70
2018-09-16T08:52:10.336Z,25.30
2018-09-16T08:54:38.703Z,24.50
2018-09-16T08:57:06.832Z,26.10
2018-09-16T08:59:35.685Z,25.60
2018-09-16T09:02:05.877Z,24.20
2018-09-16T09:04:34.773Z,25.20
2018-09-16T09:07:02.573Z,24.70
2018-09-16T09:09:30.914Z,24.40
2018-09-16T09:11:59.241Z,24.10
2018-09-16T09:14:28.591Z,25.00
2018-09-16T09:16:57.114Z,25.60
2018-09-16T09:19:26.186Z,23.90
2018-09-16T09:21:55.132Z,23.10
2018-09-16T09:24:23.530Z,24.30
2018-09-16T09:26:51.273Z,23.90
2018-09-16T09:29:19.074Z,22.50
2018-09-16T09:31:46.838Z,22.70
2018-09-16T09:34:14.721Z,22.70
2018-09-16T09:36:42.543Z,22.80
2018-09-16T09:39:12.129Z,24.40
2018-09-16T09:41:39.877Z,24.30
2018-09-16T09:44:07.673Z,23.80
2018-09-16T09:46:35.442Z,24.30
2018-09-16T09:49:03.161Z,24.50
2018-09-16T09:51:30.994Z,25.10
2018-09-16T09:53:58.766Z,24.20
2018-09-16T09:56:26.989Z,24.70
2018-09-16T09:58:54.803Z,24.00
2018-09-16T10:01:22.464Z,23.60
2018-09-16T10:03:50.388Z,24.70
2018-09-16T10:06:18.137Z,24.40
2018-09-16T10:08:46.381Z,25.40
2018-09-16T10:11:14.142Z,25.30
2018-09-16T10:13:41.953Z,25.00
2018-09-16T10:16:09.730Z,24.20
2018-09-16T10:18:37.449Z,25.20
2018-09-16T10:21:05.197Z,25.20
2018-09-16T10:23:32.958Z,24.40
2018-09-16T10:26:00.717Z,24.20
2018-09-16T10:28:28.510Z,24.90
2018-09-16T10:30:56.273Z,24.00
2018-09-16T10:33:24.018Z,24.70
2018-09-16T10:35:51.730Z,25.10
2018-09-16T10:38:19.478Z,26.00
2018-09-16T10:40:47.273Z,25.60
2018-09-16T10:43:15.043Z,25.50
2018-09-16T10:45:42.837Z,25.50
2018-09-16T10:48:10.601Z,25.50
2018-09-16T10:50:38.317Z,25.20
2018-09-16T10:53:06.365Z,25.40
2018-09-16T10:55:34.089Z,24.80
2018-09-16T10:58:03.600Z,26.30
2018-09-16T11:00:32.798Z,25.40
2018-09-16T11:03:01.279Z,26.60
2018-09-16T11:05:29.825Z,26.10
2018-09-16T11:07:58.840Z,25.30
2018-09-16T11:10:28.120Z,25.90
2018-09-16T11:12:57.870Z,26.40
2018-09-16T11:15:26.069Z,25.40
2018-09-16T11:17:54.709Z,25.20
2018-09-16T11:20:23.469Z,25.50
2018-09-16T11:22:52.816Z,25.80
2018-09-16T11:25:21.709Z,26.60
2018-09-16T11:27:49.932Z,27.20
2018-09-16T11:30:18.339Z,26.30
2018-09-16T11:32:46.498Z,26.30
2018-09-16T11:35:15.481Z,26.50
2018-09-16T11:37:45.646Z,27.10
2018-09-16T11:40:13.417Z,26.60
2018-09-16T11:42:42.713Z,26.90
2018-09-16T11:45:11.110Z,26.60
2018-09-16T11:47:39.617Z,27.50
2018-09-16T11:50:08.607Z,27.40
2018-09-16T11:52:37.589Z,27.40
2018-09-16T11:55:06.916Z,26.90
2018-09-16T11:57:34.657Z,27.30
2018-09-16T12:00:02.449Z,26.70
2018-09-16T12:02:30.166Z,27.10
2018-09-16T12:04:57.905Z,26.20
2018-09-16T12:07:25.628Z,26.80
2018-09-16T12:09:53.373Z,27.40
2018-09-16T12:12:21.110Z,27.10
2018-09-16T12:14:48.826Z,27.60
2018-09-16T12:17:16.586Z,27.50
2018-09-16T12:19:44.313Z,27.60
2018-09-16T12:22:12.049Z,27.80
2018-09-16T12:24:39.810Z,26.30
2018-09-16T12:27:07.573Z,27.10
2018-09-16T12:29:35.373Z,27.10
2018-09-16T12:32:03.242Z,26.90
2018-09-16T12:34:30.985Z,27.70
2018-09-16T12:36:58.881Z,27.10
2018-09-16T12:39:26.672Z,27.40
2018-09-16T12:41:54.388Z,27.30
2018-09-16T12:44:22.129Z,27.40
2018-09-16T12:46:49.881Z,28.20
2018-09-16T12:49:17.633Z,28.30
2018-09-16T12:51:45.370Z,28.60
2018-09-16T12:54:13.338Z,28.30
2018-09-16T12:56:41.097Z,28.30
2018-09-16T12:59:08.811Z,27.90
2018-09-16T13:01:36.549Z,27.90
2018-09-16T13:04:04.276Z,28.00
2018-09-16T13:06:32.189Z,28.00
2018-09-16T13:08:59.959Z,27.60
2018-09-16T13:11:27.684Z,27.80
2018-09-16T13:13:55.446Z,27.80
2018-09-16T13:16:23.390Z,26.70
2018-09-16T13:18:51.553Z,27.50
2018-09-16T13:21:19.277Z,28.20
2018-09-16T13:23:47.977Z,28.40
2018-09-16T13:26:16.977Z,27.80
2018-09-16T13:28:44.864Z,27.60
2018-09-16T13:31:13.764Z,27.40
2018-09-16T13:33:42.004Z,27.50
2018-09-16T13:36:10.996Z,27.70
2018-09-16T13:38:39.605Z,27.40
2018-09-16T13:41:07.778Z,27.00
2018-09-16T13:43:35.579Z,27.60
2018-09-16T13:46:04.741Z,27.60
2018-09-16T13:48:33.218Z,27.20
2018-09-16T13:51:01.013Z,27.70
2018-09-16T13:53:30.109Z,27.40
2018-09-16T13:55:59.916Z,27.50
2018-09-16T13:58:29.348Z,27.30
2018-09-16T14:00:57.799Z,27.20
2018-09-16T14:03:27.686Z,27.40
2018-09-16T14:05:57.072Z,27.50
2018-09-16T14:08:26.421Z,27.10
2018-09-16T14:10:54.760Z,27.20
2018-09-16T14:13:24.100Z,27.10
2018-09-16T14:15:53.805Z,26.70
2018-09-16T14:18:24.326Z,26.90
2018-09-16T14:20:57.415Z,26.60
2018-09-16T14:23:27.317Z,26.80
2018-09-16T14:25:56.447Z,26.70
2018-09-16T14:28:26.596Z,26.80
2018-09-16T14:30:56.734Z,26.90
2018-09-16T14:33:25.537Z,26.80
2018-09-16T14:35:53.555Z,26.80
2018-09-16T14:38:21.917Z,26.80
2018-09-16T14:40:50.129Z,26.80
2018-09-16T14:43:19.313Z,26.50
2018-09-16T14:45:48.201Z,26.50
2018-09-16T14:48:17.796Z,26.20
2018-09-16T14:50:45.545Z,26.30
2018-09-16T14:53:13.271Z,26.30
2018-09-16T14:55:41.014Z,26.40
2018-09-16T14:58:08.902Z,26.50
2018-09-16T15:00:36.650Z,26.50
2018-09-16T15:03:04.377Z,26.30
2018-09-16T15:05:32.118Z,26.50
2018-09-16T15:07:59.845Z,26.20
2018-09-16T15:10:27.577Z,26.00
2018-09-16T15:12:55.363Z,25.90
2018-09-16T15:15:23.113Z,25.80
2018-09-16T15:17:50.877Z,25.80
2018-09-16T15:20:19.276Z,25.70
2018-09-16T15:22:47.621Z,25.70
2018-09-16T15:25:15.389Z,25.80
2018-09-16T15:27:43.710Z,25.60
2018-09-16T15:30:11.512Z,25.60
2018-09-16T15:32:39.983Z,25.50
2018-09-16T15:35:07.757Z,25.60
2018-09-16T15:37:35.470Z,25.70
2018-09-16T15:40:03.642Z,25.40
2018-09-16T15:42:31.463Z,25.20
2018-09-16T15:44:59.737Z,25.20
2018-09-16T15:47:27.490Z,25.00
2018-09-16T15:49:55.222Z,25.00
2018-09-16T15:52:23.002Z,25.00
2018-09-16T15:54:50.804Z,25.00
2018-09-16T15:57:18.533Z,25.10
2018-09-16T15:59:46.274Z,25.20
2018-09-16T16:02:13.998Z,25.00
2018-09-16T16:04:41.762Z,24.70
2018-09-16T16:07:09.490Z,24.40
2018-09-16T16:09:37.601Z,24.30
2018-09-16T16:12:05.365Z,24.40
2018-09-16T16:14:33.661Z,24.40
2018-09-16T16:17:01.473Z,24.40
2018-09-16T16:19:29.869Z,24.20
2018-09-16T16:21:57.606Z,23.90
2018-09-16T16:24:25.309Z,23.80
2018-09-16T16:26:53.029Z,23.70
2018-09-16T16:29:20.807Z,23.80
2018-09-16T16:31:48.524Z,23.50
2018-09-16T16:34:16.276Z,23.50
2018-09-16T16:36:44.005Z,23.50
2018-09-16T16:39:12.309Z,23.40
2018-09-16T16:41:40.074Z,23.20
2018-09-16T16:44:07.818Z,23.10
2018-09-16T16:46:35.561Z,22.90
2018-09-16T16:49:03.309Z,22.80
2018-09-16T16:51:31.034Z,22.70
2018-09-16T16:53:58.789Z,22.70
2018-09-16T16:56:26.545Z,22.70
2018-09-16T16:58:54.329Z,22.30
2018-09-16T17:01:22.048Z,22.20
2018-09-16T17:03:49.818Z,22.10
2018-09-16T17:06:17.571Z,22.20
2018-09-16T17:08:45.377Z,22.10
2018-09-16T17:11:13.154Z,21.80
2018-09-16T17:13:40.956Z,21.70
2018-09-16T17:16:08.697Z,21.70
2018-09-16T17:18:36.413Z,21.60
2018-09-16T17:21:04.225Z,21.50
2018-09-16T17:23:31.959Z,21.30
2018-09-16T17:25:59.773Z,21.20
2018-09-16T17:28:27.533Z,21.10
2018-09-16T17:30:55.406Z,21.10
2018-09-16T17:33:23.210Z,20.90
2018-09-16T17:35:52.024Z,20.70
2018-09-16T17:38:19.737Z,20.60
2018-09-16T17:40:49.485Z,20.60
2018-09-16T17:43:17.388Z,20.40
2018-09-16T17:45:45.443Z,20.20
2018-09-16T17:48:13.185Z,20.10
2018-09-16T17:50:41.050Z,20.10
2018-09-16T17:53:08.785Z,19.90
2018-09-16T17:55:36.505Z,19.60
2018-09-16T17:58:04.241Z,19.60
2018-09-16T18:00:31.954Z,19.60
2018-09-16T18:02:59.698Z,19.50
2018-09-16T18:05:27.434Z,19.40
2018-09-16T18:07:55.171Z,19.30
2018-09-16T18:10:23.017Z,19.10
2018-09-16T18:12:50.776Z,19.10
2018-09-16T18:15:18.501Z,19.00
2018-09-16T18:17:46.214Z,18.80
2018-09-16T18:20:13.992Z,18.80
2018-09-16T18:22:42.133Z,18.70
2018-09-16T18:25:09.885Z,18.70
2018-09-16T18:27:37.605Z,18.60
2018-09-16T18:30:05.606Z,18.50
2018-09-16T18:32:33.301Z,18.40
2018-09-16T18:35:01.060Z,18.40
2018-09-16T18:37:28.793Z,18.30
2018-09-16T18:39:56.505Z,18.20
2018-09-16T18:42:24.277Z,18.10
2018-09-16T18:44:52.090Z,18.10
2018-09-16T18:47:20.015Z,18.00
2018-09-16T18:49:48.313Z,18.00
2018-09-16T18:52:16.141Z,17.90
2018-09-16T18:54:45.198Z,17.90
2018-09-16T18:57:14.063Z,17.80
2018-09-16T18:59:42.820Z,17.80
2018-09-16T19:02:11.221Z,17.70
2018-09-16T19:04:39.860Z,17.60
2018-09-16T19:07:08.959Z,17.50
2018-09-16T19:09:38.414Z,17.50
2018-09-16T19:12:07.871Z,17.50
2018-09-16T19:14:36.357Z,17.40
2018-09-16T19:17:06.988Z,17.40
2018-09-16T19:19:35.485Z,17.40
2018-09-16T19:22:04.634Z,17.30
2018-09-16T19:24:33.743Z,17.30
2018-09-16T19:27:02.681Z,17.30
2018-09-16T19:29:31.936Z,17.20
2018-09-16T19:32:01.261Z,17.10
2018-09-16T19:34:30.718Z,17.20
2018-09-16T19:36:59.461Z,17.00
2018-09-16T19:39:28.066Z,16.90
2018-09-16T19:41:57.493Z,16.90
2018-09-16T19:44:27.137Z,16.90
2018-09-16T19:46:54.911Z,16.90
2018-09-16T19:49:24.780Z,16.90
2018-09-16T19:51:52.904Z,16.80
2018-09-16T19:54:22.267Z,16.80
2018-09-16T19:56:50.208Z,16.70
2018-09-16T19:59:18.785Z,16.60
2018-09-16T20:01:47.971Z,16.60
2018-09-16T20:04:16.995Z,16.60
2018-09-16T20:06:46.279Z,16.60
2018-09-16T20:09:14.860Z,16.50
2018-09-16T20:11:42.653Z,16.50
2018-09-16T20:14:13.041Z,16.50
2018-09-16T20:16:40.788Z,16.40
2018-09-16T20:19:08.941Z,16.40
2018-09-16T20:21:37.654Z,16.40
2018-09-16T20:24:07.042Z,16.40
2018-09-16T20:26:35.822Z,16.30
2018-09-16T20:29:05.493Z,16.30
2018-09-16T20:31:34.515Z,16.30
2018-09-16T20:34:04.338Z,16.20
2018-09-16T20:36:34.454Z,16.10
2018-09-16T20:39:04.273Z,16.10
2018-09-16T20:41:32.405Z,16.10
2018-09-16T20:44:00.833Z,16.10
2018-09-16T20:46:29.013Z,16.10
2018-09-16T20:48:56.780Z,16.10
2018-09-16T20:51:25.105Z,16.10
2018-09-16T20:53:52.924Z,16.00
2018-09-16T20:56:20.713Z,16.00
2018-09-16T20:58:48.429Z,15.90
2018-09-16T21:01:16.181Z,15.90
2018-09-16T21:03:43.901Z,15.90
2018-09-16T21:06:11.653Z,15.90
2018-09-16T21:08:39.406Z,15.90
2018-09-16T21:11:07.226Z,15.80
2018-09-16T21:13:34.989Z,15.80
2018-09-16T21:16:02.734Z,15.80
2018-09-16T21:18:31.049Z,15.70
2018-09-16T21:20:58.834Z,15.70
2018-09-16T21:23:27.502Z,15.60
2018-09-16T21:25:55.285Z,15.60
2018-09-16T21:28:23.864Z,15.70
2018-09-16T21:30:53.490Z,15.70
2018-09-16T21:33:21.277Z,15.70
2018-09-16T21:35:48.997Z,15.60
2018-09-16T21:38:16.717Z,15.50
2018-09-16T21:40:44.493Z,15.40
2018-09-16T21:43:12.225Z,15.40
2018-09-16T21:45:40.169Z,15.30
2018-09-16T21:48:07.877Z,15.30
2018-09-16T21:50:35.601Z,15.30
2018-09-16T21:53:03.344Z,15.20
2018-09-16T21:55:31.074Z,15.20
2018-09-16T21:57:58.872Z,15.20
2018-09-16T22:00:26.690Z,15.10
2018-09-16T22:02:54.437Z,15.10
2018-09-16T22:05:22.266Z,15.00
2018-09-16T22:07:50.246Z,14.90
2018-09-16T22:10:18.256Z,14.90
2018-09-16T22:12:48.196Z,14.90
2018-09-16T22:15:16.057Z,14.90
2018-09-16T22:17:43.817Z,15.00
2018-09-16T22:20:11.725Z,14.90
2018-09-16T22:22:39.501Z,14.80
2018-09-16T22:25:07.746Z,14.80
2018-09-16T22:27:35.508Z,14.70
2018-09-16T22:30:03.306Z,14.70
2018-09-16T22:32:31.657Z,14.80
2018-09-16T22:34:59.448Z,14.80
2018-09-16T22:37:27.236Z,14.70
2018-09-16T22:39:55.001Z,14.70
2018-09-16T22:42:22.729Z,14.60
2018-09-16T22:44:50.457Z,14.60
2018-09-16T22:47:18.225Z,14.60
2018-09-16T22:49:45.936Z,14.60
2018-09-16T22:52:13.693Z,14.60
2018-09-16T22:54:41.462Z,14.50
2018-09-16T22:57:09.233Z,14.60
2018-09-16T22:59:36.957Z,14.60
2018-09-16T23:02:04.722Z,14.50
2018-09-16T23:04:32.491Z,14.40
2018-09-16T23:07:00.236Z,14.40
2018-09-16T23:09:28.052Z,14.30
2018-09-16T23:11:55.788Z,14.20
2018-09-16T23:14:23.521Z,14.30
2018-09-16T23:16:51.293Z,14.30
2018-09-16T23:19:19.005Z,14.20
2018-09-16T23:21:46.745Z,14.10
2018-09-16T23:24:14.457Z,14.10
2018-09-16T23:26:42.230Z,14.10
2018-09-16T23:29:09.969Z,14.10
2018-09-16T23:31:37.726Z,14.10
2018-09-16T23:34:05.490Z,14.10
2018-09-16T23:36:33.270Z,14.00
2018-09-16T23:39:01.054Z,14.00
2018-09-16T23:41:28.785Z,13.90
2018-09-16T23:43:56.521Z,13.80
2018-09-16T23:46:24.249Z,13.90
2018-09-16T23:48:52.057Z,13.90
2018-09-16T23:51:19.829Z,13.90
2018-09-16T23:53:47.581Z,13.90
2018-09-16T23:56:15.322Z,13.90
2018-09-16T23:58:43.042Z,13.90
